Terminal Aerodrome Forecast
Issued by NWS

Home | Current Version | Previous Version | Text Only | Print | Product List | Glossary On
Versions: 1 2 3 4 5 6 7 8 9 10 11 12 13
000
FTUS45 KFGZ 221900 AAA
TAFPRC
TAF AMD
KPRC 221941Z 2220/2318 15008KT P6SM BKN110
      TEMPO 2220/2221 VRB10G20KT -SHRA BKN090
     FM222100 22006KT P6SM BKN100=

USA.gov is the U.S. government's official web portal to all federal, state and local government web resources and services.